Time;durP1;ratioP1;P1;durP2;ratioP2;P2;SDS_P1;SDS_P2;PMS_P1;PMS_P2;Temp;Humidity;BMP_temperature;BMP_pressure;BME280_temperature;BME280_humidity;BME280_pressure;Samples;Min_cycle;Max_cycle;Signal;HPM_P1;HPM_P2
2024/01/18 00:01:30;;;;;;;0.10;0.10;;;;;;;7.34;100.00;92899.41;4327202;32;20353;-59
2024/01/18 00:03:59;;;;;;;1.10;0.20;;;;;;;7.29;100.00;92899.63;4298408;32;20361;-60
2024/01/18 00:06:27;;;;;;;0.00;0.00;;;;;;;7.20;100.00;92902.41;4349355;32;20331;-59
2024/01/18 00:08:53;;;;;;;0.10;0.10;;;;;;;7.22;100.00;92904.72;4354928;32;20319;-59
2024/01/18 00:11:20;;;;;;;0.00;0.00;;;;;;;7.23;100.00;92906.25;4340013;32;20299;-59
2024/01/18 00:13:50;;;;;;;0.10;0.10;;;;;;;7.25;100.00;92904.06;4358360;32;20319;-59
2024/01/18 00:16:17;;;;;;;0.00;0.00;;;;;;;7.16;100.00;92904.16;4362741;32;20297;-59
2024/01/18 00:18:42;;;;;;;0.00;0.00;;;;;;;7.21;100.00;92903.19;4354585;32;20314;-59
2024/01/18 00:21:08;;;;;;;0.00;0.00;;;;;;;7.19;100.00;92908.00;4351670;32;20297;-59
2024/01/18 00:23:34;;;;;;;0.00;0.00;;;;;;;7.20;100.00;92909.53;4342360;32;20205;-59
2024/01/18 00:26:01;;;;;;;0.00;0.00;;;;;;;7.23;100.00;92908.88;4356535;32;20360;-59
2024/01/18 00:28:26;;;;;;;0.10;0.10;;;;;;;7.12;100.00;92915.69;4349365;32;20244;-59
2024/01/18 00:30:53;;;;;;;0.43;0.23;;;;;;;7.08;100.00;92914.81;4367737;32;20280;-59
2024/01/18 00:33:20;;;;;;;0.10;0.10;;;;;;;7.09;100.00;92922.38;4373802;32;20253;-59
2024/01/18 00:35:48;;;;;;;0.00;0.00;;;;;;;7.20;100.00;92922.72;4357425;32;20284;-59
2024/01/18 00:38:14;;;;;;;0.00;0.00;;;;;;;7.17;100.00;92915.47;4370663;32;20407;-59
2024/01/18 00:40:42;;;;;;;0.10;0.10;;;;;;;7.09;100.00;92922.38;4382017;32;20285;-59
2024/01/18 00:43:08;;;;;;;0.10;0.10;;;;;;;7.10;100.00;92923.16;4356472;32;20207;-59
2024/01/18 00:45:35;;;;;;;0.03;0.03;;;;;;;7.10;100.00;92918.66;4344585;32;20292;-59
2024/01/18 00:48:02;;;;;;;0.00;0.00;;;;;;;7.13;100.00;92923.28;4364777;32;20331;-59
2024/01/18 00:50:31;;;;;;;0.10;0.10;;;;;;;7.17;100.00;92918.13;4347707;32;20334;-59
2024/01/18 00:52:56;;;;;;;0.10;0.10;;;;;;;7.21;100.00;92924.25;4351570;32;20346;-59
2024/01/18 00:55:24;;;;;;;0.00;0.00;;;;;;;7.24;100.00;92929.66;4369160;32;20356;-59
2024/01/18 00:57:51;;;;;;;0.00;0.00;;;;;;;7.17;100.00;92929.44;4368770;32;20224;-60
2024/01/18 01:00:18;;;;;;;0.00;0.00;;;;;;;7.24;100.00;92934.16;4354285;32;20427;-59
2024/01/18 01:02:43;;;;;;;0.03;0.03;;;;;;;7.16;100.00;92941.06;4368173;32;20344;-59
2024/01/18 01:05:09;;;;;;;0.00;0.00;;;;;;;7.18;100.00;92951.28;4364201;32;20327;-59
2024/01/18 01:07:35;;;;;;;0.00;0.00;;;;;;;7.16;100.00;92937.66;4334776;32;20241;-59
2024/01/18 01:10:02;;;;;;;0.00;0.00;;;;;;;7.15;100.00;92934.25;4351563;32;20336;-60
2024/01/18 01:12:29;;;;;;;0.30;0.30;;;;;;;7.06;100.00;92938.88;4359172;32;20196;-60
2024/01/18 01:14:56;;;;;;;0.10;0.10;;;;;;;7.00;100.00;92934.94;4368489;32;20292;-60
2024/01/18 01:17:21;;;;;;;0.10;0.10;;;;;;;7.06;100.00;92932.84;4365068;32;20319;-59
2024/01/18 01:19:48;;;;;;;0.00;0.00;;;;;;;7.15;100.00;92934.25;4357660;32;20288;-58
2024/01/18 01:22:15;;;;;;;0.33;0.27;;;;;;;7.17;100.00;92924.16;4302804;32;20462;-59
2024/01/18 01:24:42;;;;;;;0.00;0.00;;;;;;;7.24;100.00;92942.84;4347611;32;20295;-59
2024/01/18 01:27:09;;;;;;;0.00;0.00;;;;;;;7.16;100.00;92935.78;4373245;32;20324;-59
2024/01/18 01:29:34;;;;;;;0.00;0.00;;;;;;;7.12;100.00;92947.31;4354952;32;20303;-59
2024/01/18 01:32:02;;;;;;;0.13;0.13;;;;;;;7.00;100.00;92940.19;4278585;32;20311;-59
2024/01/18 01:34:29;;;;;;;0.00;0.00;;;;;;;7.02;100.00;92942.50;4339127;32;20332;-59
2024/01/18 01:37:00;;;;;;;0.00;0.00;;;;;;;7.08;100.00;92946.44;4364493;32;20355;-62
2024/01/18 01:39:26;;;;;;;0.13;0.10;;;;;;;7.05;100.00;92952.41;4358724;32;20315;-60
2024/01/18 01:41:52;;;;;;;0.03;0.03;;;;;;;7.12;100.00;92934.91;4341054;32;20293;-59
2024/01/18 01:44:17;;;;;;;0.20;0.10;;;;;;;7.10;100.00;92934.47;4316894;32;20300;-59
2024/01/18 01:46:44;;;;;;;0.00;0.00;;;;;;;7.20;100.00;92949.88;4337483;32;20197;-59
2024/01/18 01:49:10;;;;;;;0.00;0.00;;;;;;;7.20;100.00;92944.59;4349832;32;20253;-59
2024/01/18 01:51:48;;;;;;;0.20;0.20;;;;;;;7.14;100.00;92950.41;4366071;32;20280;-59
2024/01/18 01:54:17;;;;;;;0.20;0.20;;;;;;;7.18;100.00;92943.37;4338369;32;20311;-59
2024/01/18 01:56:46;;;;;;;0.10;0.10;;;;;;;7.31;100.00;92950.16;4359412;32;20363;-59
2024/01/18 01:59:13;;;;;;;0.00;0.00;;;;;;;7.24;100.00;92947.34;4337362;32;20292;-59
2024/01/18 02:01:42;;;;;;;0.00;0.00;;;;;;;7.29;100.00;92947.09;4310788;32;20349;-59
2024/01/18 02:04:09;;;;;;;0.10;0.10;;;;;;;7.20;100.00;92943.81;4348072;32;20281;-59
2024/01/18 02:06:36;;;;;;;0.20;0.20;;;;;;;7.29;100.00;92941.81;4361834;32;20338;-59
2024/01/18 02:09:03;;;;;;;0.00;0.00;;;;;;;7.26;100.00;92937.22;4349224;32;20272;-59
2024/01/18 02:11:29;;;;;;;0.10;0.10;;;;;;;7.00;100.00;92932.28;4355439;32;20301;-59
2024/01/18 02:13:55;;;;;;;0.10;0.10;;;;;;;7.03;100.00;92939.53;4351168;32;20306;-59
2024/01/18 02:16:21;;;;;;;0.00;0.00;;;;;;;7.20;100.00;92947.22;4331018;32;20240;-59
2024/01/18 02:18:49;;;;;;;0.00;0.00;;;;;;;7.38;100.00;92942.47;4339616;32;20293;-59
2024/01/18 02:21:16;;;;;;;0.00;0.00;;;;;;;7.30;100.00;92942.59;4324896;32;20384;-60
2024/01/18 02:23:46;;;;;;;0.10;0.10;;;;;;;7.30;100.00;92929.41;4325430;32;20363;-60
2024/01/18 02:26:11;;;;;;;0.00;0.00;;;;;;;7.30;100.00;92929.41;4319484;32;20392;-59
2024/01/18 02:28:39;;;;;;;0.00;0.00;;;;;;;7.32;100.00;92925.34;4288753;32;20289;-59
2024/01/18 02:31:04;;;;;;;0.17;0.17;;;;;;;7.18;100.00;92935.47;4350436;32;20201;-59
2024/01/18 02:33:33;;;;;;;0.00;0.00;;;;;;;7.12;100.00;92928.87;4328995;32;20316;-60
2024/01/18 02:35:59;;;;;;;0.00;0.00;;;;;;;7.09;100.00;92935.56;4346395;32;20234;-59
2024/01/18 02:38:25;;;;;;;0.10;0.07;;;;;;;7.06;100.00;92938.13;4365538;32;20320;-62
2024/01/18 02:40:52;;;;;;;0.00;0.00;;;;;;;7.02;100.00;92926.69;4330988;32;20224;-59
2024/01/18 02:43:21;;;;;;;0.30;0.10;;;;;;;7.13;100.00;92925.91;4350965;32;20295;-59
2024/01/18 02:45:48;;;;;;;0.00;0.00;;;;;;;7.07;100.00;92929.09;4346138;32;21843;-59
2024/01/18 02:48:14;;;;;;;0.00;0.00;;;;;;;7.16;100.00;92924.47;4331053;32;20298;-59
2024/01/18 02:50:41;;;;;;;0.00;0.00;;;;;;;7.03;100.00;92923.72;4379203;32;20334;-59
2024/01/18 02:53:08;;;;;;;0.00;0.00;;;;;;;7.01;100.00;92915.38;4352496;32;20285;-59
2024/01/18 02:55:34;;;;;;;0.00;0.00;;;;;;;7.14;100.00;92924.81;4356201;32;20351;-59
2024/01/18 02:58:01;;;;;;;1.00;0.20;;;;;;;7.13;100.00;92933.81;4347241;32;20311;-59
2024/01/18 03:00:28;;;;;;;0.20;0.10;;;;;;;7.05;100.00;92931.31;4347292;32;20332;-59
2024/01/18 03:02:59;;;;;;;0.00;0.00;;;;;;;7.03;100.00;92929.00;4347104;32;20322;-59
2024/01/18 03:05:27;;;;;;;0.10;0.10;;;;;;;7.21;100.00;92926.91;4337509;32;20303;-60
2024/01/18 03:07:54;;;;;;;0.00;0.00;;;;;;;7.19;100.00;92931.72;4320003;32;20336;-59
2024/01/18 03:10:22;;;;;;;0.07;0.07;;;;;;;7.27;100.00;92932.72;4349904;32;20289;-59
2024/01/18 03:12:48;;;;;;;0.00;0.00;;;;;;;7.22;100.00;92931.06;4335957;32;20376;-59
2024/01/18 03:15:13;;;;;;;0.00;0.00;;;;;;;7.17;100.00;92932.06;4358094;32;20340;-58
2024/01/18 03:17:40;;;;;;;0.00;0.00;;;;;;;7.07;100.00;92927.22;4368553;32;20308;-58
2024/01/18 03:20:07;;;;;;;0.10;0.10;;;;;;;7.08;100.00;92925.34;4355949;32;20315;-59
2024/01/18 03:22:35;;;;;;;0.10;0.10;;;;;;;7.07;100.00;92924.59;4334518;32;20294;-59
2024/01/18 03:25:01;;;;;;;0.00;0.00;;;;;;;7.02;100.00;92927.47;4323257;32;20306;-59
2024/01/18 03:27:26;;;;;;;0.07;0.07;;;;;;;7.12;100.00;92931.50;4339158;32;20301;-59
2024/01/18 03:29:53;;;;;;;0.00;0.00;;;;;;;7.17;100.00;92931.28;4336647;32;20220;-59
2024/01/18 03:32:19;;;;;;;0.00;0.00;;;;;;;7.20;100.00;92928.00;4357945;32;20252;-59
2024/01/18 03:34:47;;;;;;;0.00;0.00;;;;;;;7.21;100.00;92926.91;4338970;32;20400;-58
2024/01/18 03:37:13;;;;;;;0.00;0.00;;;;;;;7.27;100.00;92930.84;4310491;32;20309;-58
2024/01/18 03:39:39;;;;;;;0.00;0.00;;;;;;;7.14;100.00;92921.41;4345727;32;20354;-59
2024/01/18 03:42:06;;;;;;;0.10;0.00;;;;;;;7.16;100.00;92916.56;4331289;32;20267;-59
2024/01/18 03:44:35;;;;;;;0.30;0.30;;;;;;;7.07;100.00;92919.31;4341138;32;20300;-59
2024/01/18 03:47:01;;;;;;;0.10;0.10;;;;;;;6.99;100.00;92922.84;4336159;32;20293;-59
2024/01/18 03:49:26;;;;;;;1.70;0.20;;;;;;;7.02;100.00;92918.78;4348250;32;20373;-60
2024/01/18 03:52:00;;;;;;;0.00;0.00;;;;;;;7.01;100.00;92919.87;4354750;32;20315;-59
2024/01/18 03:54:27;;;;;;;0.00;0.00;;;;;;;7.09;100.00;92919.75;4336568;32;20243;-61
2024/01/18 03:56:53;;;;;;;0.00;0.00;;;;;;;7.07;100.00;92924.59;4333538;32;20305;-59
2024/01/18 03:59:20;;;;;;;0.00;0.00;;;;;;;7.16;100.00;92921.84;4327087;32;20204;-59
2024/01/18 04:01:46;;;;;;;0.00;0.00;;;;;;;7.15;100.00;92925.56;4341326;32;20218;-59
2024/01/18 04:04:12;;;;;;;0.00;0.00;;;;;;;7.22;100.00;92918.66;4361479;32;20293;-59
2024/01/18 04:06:42;;;;;;;0.00;0.00;;;;;;;7.14;100.00;92924.03;4365541;32;20307;-59
2024/01/18 04:09:12;;;;;;;0.07;0.00;;;;;;;7.08;100.00;92920.06;4322257;32;20312;-59
2024/01/18 04:11:39;;;;;;;0.00;0.00;;;;;;;7.11;100.00;92922.06;4289892;33;20316;-59
2024/01/18 04:14:04;;;;;;;0.10;0.10;;;;;;;7.12;100.00;92920.97;4300032;32;20306;-60
2024/01/18 04:16:33;;;;;;;0.20;0.20;;;;;;;7.00;100.00;92924.38;4300509;32;20373;-59
2024/01/18 04:19:01;;;;;;;0.00;0.00;;;;;;;7.14;100.00;92929.31;4318667;32;20210;-59
2024/01/18 04:21:26;;;;;;;0.00;0.00;;;;;;;7.10;100.00;92928.44;4346323;32;20410;-60
2024/01/18 04:23:55;;;;;;;0.10;0.10;;;;;;;7.15;100.00;92931.62;4333537;32;20358;-59
2024/01/18 04:26:24;;;;;;;0.10;0.10;;;;;;;7.14;100.00;92931.94;4340875;32;20207;-60
2024/01/18 04:28:51;;;;;;;0.00;0.00;;;;;;;7.13;100.00;92933.81;4369571;32;20307;-60
2024/01/18 04:31:18;;;;;;;0.07;0.07;;;;;;;7.17;100.00;92929.44;4354754;32;20372;-58
2024/01/18 04:33:45;;;;;;;0.00;0.00;;;;;;;7.16;100.00;92929.75;4351603;32;20291;-59
2024/01/18 04:36:12;;;;;;;0.00;0.00;;;;;;;7.17;100.00;92933.94;4334755;32;20379;-59
2024/01/18 04:38:37;;;;;;;0.00;0.00;;;;;;;7.15;100.00;92925.56;4359618;32;20378;-59
2024/01/18 04:41:05;;;;;;;0.13;0.13;;;;;;;7.12;100.00;92929.66;4370694;32;20311;-59
2024/01/18 04:43:30;;;;;;;0.13;0.13;;;;;;;7.09;100.00;92927.66;4351275;32;20296;-59
2024/01/18 04:45:59;;;;;;;0.00;0.00;;;;;;;7.08;100.00;92925.34;4342528;32;20311;-59
2024/01/18 04:48:26;;;;;;;0.03;0.03;;;;;;;7.03;100.00;92929.00;4326144;32;20261;-60
2024/01/18 04:50:52;;;;;;;0.00;0.00;;;;;;;7.13;100.00;92928.53;4367873;32;20292;-60
2024/01/18 04:53:20;;;;;;;0.50;0.30;;;;;;;6.96;100.00;92925.38;4365967;32;20292;-59
2024/01/18 04:55:47;;;;;;;0.10;0.10;;;;;;;7.01;100.00;92928.56;4337553;32;20364;-59
2024/01/18 04:58:13;;;;;;;0.10;0.10;;;;;;;7.09;100.00;92932.16;4293515;32;20286;-59
2024/01/18 05:00:41;;;;;;;0.20;0.20;;;;;;;7.12;100.00;92928.87;4362546;32;20350;-59
2024/01/18 05:03:08;;;;;;;0.17;0.17;;;;;;;7.09;100.00;92922.38;4375828;32;20322;-59
2024/01/18 05:05:36;;;;;;;0.13;0.13;;;;;;;7.04;100.00;92927.13;4363792;32;20319;-59
2024/01/18 05:08:03;;;;;;;0.83;0.10;;;;;;;7.04;100.00;92935.81;4345712;32;20338;-59
2024/01/18 05:10:30;;;;;;;0.20;0.20;;;;;;;7.05;100.00;92931.31;4333057;32;20307;-59
2024/01/18 05:12:56;;;;;;;0.00;0.00;;;;;;;7.07;100.00;92927.22;4364302;32;20342;-64
2024/01/18 05:15:25;;;;;;;2.20;0.40;;;;;;;7.07;100.00;92935.13;4352810;32;20304;-59
2024/01/18 05:17:51;;;;;;;0.10;0.10;;;;;;;7.09;100.00;92926.91;4341052;32;20340;-58
2024/01/18 05:20:17;;;;;;;0.00;0.00;;;;;;;7.10;100.00;92921.28;4341640;32;20340;-59
2024/01/18 05:22:44;;;;;;;0.10;0.10;;;;;;;7.07;100.00;92929.09;4314309;32;20310;-58
2024/01/18 05:25:10;;;;;;;0.00;0.00;;;;;;;7.04;100.00;92932.41;4311704;32;20317;-59
2024/01/18 05:27:36;;;;;;;0.20;0.20;;;;;;;7.11;100.00;92930.75;4345598;32;20346;-59
2024/01/18 05:30:04;;;;;;;0.20;0.20;;;;;;;7.09;100.00;92932.16;4318736;32;20193;-59
2024/01/18 05:32:32;;;;;;;0.00;0.00;;;;;;;7.08;100.00;92936.66;4350634;32;20371;-60
2024/01/18 05:35:02;;;;;;;0.00;0.00;;;;;;;7.09;100.00;92932.16;4368525;32;20357;-59
2024/01/18 05:37:29;;;;;;;0.10;0.10;;;;;;;7.08;100.00;92930.63;4368190;32;20300;-59
2024/01/18 05:39:58;;;;;;;0.10;0.10;;;;;;;7.09;100.00;92925.03;4358591;32;20411;-60
2024/01/18 05:42:26;;;;;;;0.17;0.13;;;;;;;7.04;100.00;92929.78;4332859;32;20297;-59
2024/01/18 05:44:51;;;;;;;0.10;0.10;;;;;;;6.99;100.00;92930.75;4356304;32;20338;-59
2024/01/18 05:47:22;;;;;;;0.10;0.10;;;;;;;6.93;100.00;92939.97;4346471;32;20278;-59
2024/01/18 05:49:49;;;;;;;0.10;0.10;;;;;;;7.01;100.00;92936.47;4350657;32;20264;-59
2024/01/18 05:52:17;;;;;;;1.67;0.20;;;;;;;7.01;100.00;92943.59;4364998;32;20406;-59
2024/01/18 05:54:46;;;;;;;0.10;0.10;;;;;;;7.00;100.00;92937.56;4335299;32;20285;-59
2024/01/18 05:57:12;;;;;;;0.20;0.20;;;;;;;6.95;100.00;92943.03;4339507;32;20308;-59
2024/01/18 05:59:37;;;;;;;0.30;0.30;;;;;;;6.99;100.00;92938.66;4326644;32;20285;-58
2024/01/18 06:02:04;;;;;;;0.07;0.07;;;;;;;6.98;100.00;92941.63;4338257;32;20184;-58
2024/01/18 06:04:31;;;;;;;0.10;0.10;;;;;;;7.02;100.00;92937.22;4307485;32;20220;-59
2024/01/18 06:06:59;;;;;;;0.20;0.20;;;;;;;7.04;100.00;92943.72;4349192;32;20354;-59
2024/01/18 06:09:26;;;;;;;0.00;0.00;;;;;;;6.98;100.00;92941.63;4356427;32;20289;-63
2024/01/18 06:11:55;;;;;;;0.00;0.00;;;;;;;7.02;100.00;92942.50;4342485;32;20328;-59
2024/01/18 06:14:22;;;;;;;0.10;0.10;;;;;;;7.00;100.00;92940.19;4357082;32;20337;-59
2024/01/18 06:16:47;;;;;;;0.20;0.20;;;;;;;7.01;100.00;92935.69;4358267;32;20285;-59
2024/01/18 06:19:15;;;;;;;0.00;0.00;;;;;;;6.99;100.00;92940.53;4365361;32;20280;-59
2024/01/18 06:21:41;;;;;;;0.00;0.00;;;;;;;6.99;100.00;92932.62;4362784;32;20292;-59
2024/01/18 06:24:07;;;;;;;0.40;0.27;;;;;;;6.98;100.00;92931.84;4374044;32;20406;-59
2024/01/18 06:26:34;;;;;;;0.10;0.10;;;;;;;7.04;100.00;92930.53;4349477;32;20284;-59
2024/01/18 06:29:00;;;;;;;0.10;0.10;;;;;;;7.04;100.00;92927.13;4347475;32;20311;-59
2024/01/18 06:31:29;;;;;;;0.10;0.10;;;;;;;7.00;100.00;92923.62;4314689;32;20305;-59
2024/01/18 06:33:56;;;;;;;0.20;0.20;;;;;;;6.99;100.00;92922.06;4337838;32;20213;-59
2024/01/18 06:36:23;;;;;;;0.20;0.20;;;;;;;6.94;100.00;92930.97;4356284;32;20370;-59
2024/01/18 06:38:51;;;;;;;0.00;0.00;;;;;;;7.02;100.00;92922.19;4327066;32;20300;-59
2024/01/18 06:41:20;;;;;;;0.10;0.10;;;;;;;7.07;100.00;92921.19;4355743;32;20376;-59
2024/01/18 06:43:48;;;;;;;0.30;0.30;;;;;;;7.11;100.00;92922.06;4348973;32;20443;-59
2024/01/18 06:46:34;;;;;;;0.40;0.40;;;;;;;7.02;100.00;92921.41;4364249;32;20297;-59
2024/01/18 06:49:02;;;;;;;0.27;0.27;;;;;;;7.07;100.00;92923.81;4334280;32;20358;-59
2024/01/18 06:51:31;;;;;;;0.10;0.10;;;;;;;7.06;100.00;92914.41;4370618;32;20286;-59
2024/01/18 06:53:56;;;;;;;0.27;0.27;;;;;;;7.05;100.00;92918.13;4367829;32;20284;-59
2024/01/18 06:56:23;;;;;;;0.30;0.30;;;;;;;6.96;100.00;92912.19;4385706;32;20326;-59
2024/01/18 06:58:48;;;;;;;0.03;0.03;;;;;;;6.98;100.00;92920.53;4362468;32;20367;-60
2024/01/18 07:01:17;;;;;;;1.07;0.67;;;;;;;7.01;100.00;92914.63;4365477;32;23512;-59
2024/01/18 07:03:43;;;;;;;0.20;0.20;;;;;;;7.06;100.00;92930.97;4340779;32;20206;-59
2024/01/18 07:06:09;;;;;;;0.20;0.20;;;;;;;6.96;100.00;92926.13;4333604;32;20318;-60
2024/01/18 07:08:37;;;;;;;0.10;0.10;;;;;;;6.98;100.00;92920.53;4343940;32;20379;-61
2024/01/18 07:11:04;;;;;;;0.00;0.00;;;;;;;6.89;100.00;92934.56;4369137;32;20353;-59
2024/01/18 07:13:35;;;;;;;0.10;0.10;;;;;;;6.70;100.00;92928.31;4371876;32;20292;-59
2024/01/18 07:16:03;;;;;;;0.10;0.10;;;;;;;6.72;100.00;92931.38;4376917;32;20302;-59
2024/01/18 07:18:30;;;;;;;0.13;0.13;;;;;;;6.69;100.00;92924.91;4365584;32;20277;-60
2024/01/18 07:20:55;;;;;;;0.30;0.30;;;;;;;6.75;100.00;92928.87;4343640;32;20289;-59
2024/01/18 07:23:22;;;;;;;0.30;0.30;;;;;;;6.78;100.00;92928.22;4339374;32;20293;-58
2024/01/18 07:25:49;;;;;;;0.20;0.20;;;;;;;6.88;100.00;92925.12;4315988;32;20272;-58
2024/01/18 07:28:20;;;;;;;0.33;0.30;;;;;;;6.83;100.00;92924.59;4367299;32;20403;-59
2024/01/18 07:30:47;;;;;;;0.03;0.03;;;;;;;6.79;100.00;92921.84;4357496;32;20305;-59
2024/01/18 07:33:14;;;;;;;0.30;0.30;;;;;;;6.74;100.00;92926.56;4323040;32;20298;-59
2024/01/18 07:35:43;;;;;;;0.40;0.40;;;;;;;6.73;100.00;92923.16;4368806;32;20303;-59
2024/01/18 07:38:10;;;;;;;0.10;0.10;;;;;;;6.69;100.00;92919.63;4385776;32;20280;-59
2024/01/18 07:40:36;;;;;;;0.30;0.30;;;;;;;6.78;100.00;92917.69;4354893;32;20305;-59
2024/01/18 07:43:02;;;;;;;0.37;0.37;;;;;;;6.79;100.00;92910.53;4345775;32;20300;-59
2024/01/18 07:45:31;;;;;;;2.50;1.03;;;;;;;6.75;100.00;92913.06;4366447;32;20289;-65
2024/01/18 07:47:56;;;;;;;0.87;0.87;;;;;;;9.38;100.00;92912.22;4355057;32;20200;-65
2024/01/18 07:50:21;;;;;;;0.30;0.30;;;;;;;10.92;100.00;92908.75;4358880;32;20315;-66
2024/01/18 07:52:47;;;;;;;0.20;0.20;;;;;;;11.67;98.65;92907.97;4354241;32;20196;-66
2024/01/18 08:00:19;;;;;;;3.33;0.60;;;;;;;11.22;93.50;92916.81;4331690;32;20237;-63
2024/01/18 08:02:45;;;;;;;0.93;0.93;;;;;;;10.22;98.38;92917.75;4335349;32;20289;-62
2024/01/18 08:05:11;;;;;;;0.40;0.40;;;;;;;9.58;100.00;92924.38;4318749;32;20291;-62
2024/01/18 08:07:38;;;;;;;4.03;0.50;;;;;;;9.04;100.00;92921.66;4334608;32;20205;-61
2024/01/18 08:10:04;;;;;;;0.90;0.90;;;;;;;8.71;100.00;92927.28;4331081;32;20186;-62
2024/01/18 08:12:29;;;;;;;0.37;0.37;;;;;;;8.44;100.00;92930.75;4330960;32;20257;-62
2024/01/18 08:14:55;;;;;;;0.10;0.10;;;;;;;8.08;100.00;92921.88;4329455;32;20185;-63
2024/01/18 08:17:20;;;;;;;0.30;0.30;;;;;;;7.81;100.00;92920.75;4332064;32;20212;-62
2024/01/18 08:19:45;;;;;;;0.40;0.30;;;;;;;7.73;100.00;92915.59;4331879;32;20217;-62
2024/01/18 08:22:12;;;;;;;0.33;0.33;;;;;;;7.63;100.00;92916.06;4327715;32;20193;-61
2024/01/18 08:24:38;;;;;;;0.90;0.90;;;;;;;7.54;100.00;92916.94;4331166;32;20320;-62
2024/01/18 08:27:03;;;;;;;0.80;0.73;;;;;;;7.44;100.00;92920.06;4328805;32;20311;-62
2024/01/18 08:29:28;;;;;;;0.30;0.30;;;;;;;7.48;100.00;92917.53;4329217;32;20193;-62
2024/01/18 08:31:54;;;;;;;0.30;0.30;;;;;;;7.61;100.00;92918.28;4339410;32;20200;-62
2024/01/18 08:34:19;;;;;;;0.70;0.70;;;;;;;7.58;100.00;92927.63;4322879;32;20229;-62
2024/01/18 08:36:45;;;;;;;0.50;0.50;;;;;;;7.89;100.00;92917.22;4316775;33;20213;-62
2024/01/18 08:39:10;;;;;;;0.60;0.60;;;;;;;7.84;100.00;92916.66;4331014;32;20251;-62
2024/01/18 08:41:35;;;;;;;1.63;0.43;;;;;;;7.85;100.00;92915.56;4330736;32;20251;-62
2024/01/18 08:44:01;;;;;;;0.30;0.30;;;;;;;7.83;100.00;92917.78;4331809;32;20263;-62
2024/01/18 08:46:26;;;;;;;0.40;0.40;;;;;;;7.85;100.00;92913.69;4331834;32;20193;-62
2024/01/18 08:48:52;;;;;;;0.30;0.30;;;;;;;7.89;100.00;92919.06;4322165;33;20244;-62
2024/01/18 08:51:17;;;;;;;0.20;0.20;;;;;;;7.89;100.00;92917.22;4316593;32;20224;-63
2024/01/18 08:53:44;;;;;;;0.40;0.40;;;;;;;7.77;100.00;92919.09;4317098;32;20219;-63
2024/01/18 08:56:09;;;;;;;0.17;0.17;;;;;;;7.84;100.00;92914.03;4324695;32;20246;-62
2024/01/18 08:58:38;;;;;;;0.10;0.10;;;;;;;7.85;100.00;92916.34;4336148;32;20285;-62
2024/01/18 09:01:03;;;;;;;0.20;0.20;;;;;;;7.93;100.00;92919.91;4344882;32;20232;-62
2024/01/18 09:03:28;;;;;;;0.13;0.13;;;;;;;7.89;100.00;92913.78;4345673;32;20296;-63
2024/01/18 09:05:55;;;;;;;0.30;0.30;;;;;;;7.99;100.00;92921.22;4347625;32;20203;-62
2024/01/18 09:08:21;;;;;;;1.40;0.50;;;;;;;8.00;100.00;92912.22;4332430;32;20254;-62
2024/01/18 09:10:46;;;;;;;0.13;0.13;;;;;;;8.04;100.00;92928.91;4343488;32;20274;-62
2024/01/18 09:13:11;;;;;;;0.53;0.53;;;;;;;8.00;100.00;92917.47;4345746;32;20216;-63
2024/01/18 09:15:37;;;;;;;0.10;0.10;;;;;;;8.13;100.00;92921.59;4329963;32;20232;-63
2024/01/18 09:18:03;;;;;;;0.20;0.20;;;;;;;8.34;100.00;92931.22;4347130;32;20212;-62
2024/01/18 09:20:28;;;;;;;0.17;0.17;;;;;;;8.38;100.00;92934.72;4344811;32;20235;-63
2024/01/18 09:22:54;;;;;;;0.40;0.30;;;;;;;8.37;100.00;92947.16;4346670;32;20201;-62
2024/01/18 09:25:19;;;;;;;0.00;0.00;;;;;;;8.34;100.00;92944.44;4330999;32;20190;-62
2024/01/18 09:27:44;;;;;;;0.30;0.30;;;;;;;8.49;100.00;92943.72;4331950;32;20264;-62
2024/01/18 09:30:11;;;;;;;0.10;0.10;;;;;;;8.64;100.00;92955.41;4343567;32;20248;-62
2024/01/18 09:32:36;;;;;;;0.30;0.30;;;;;;;8.61;100.00;92954.97;4342658;32;20193;-62
2024/01/18 09:35:05;;;;;;;0.20;0.20;;;;;;;8.66;100.00;92967.19;4330639;32;20247;-62
2024/01/18 09:37:31;;;;;;;0.77;0.40;;;;;;;8.88;100.00;92977.19;4343732;32;20245;-63
2024/01/18 09:39:57;;;;;;;0.20;0.20;;;;;;;9.04;100.00;92979.06;4342478;32;20232;-63
2024/01/18 09:42:28;;;;;;;0.00;0.00;;;;;;;8.99;100.00;92990.66;4346381;32;20220;-62
2024/01/18 09:44:59;;;;;;;0.10;0.10;;;;;;;9.11;100.00;92987.19;4342549;32;20198;-63
2024/01/18 09:47:25;;;;;;;0.03;0.03;;;;;;;8.93;100.00;92987.50;4343122;32;20253;-63
2024/01/18 09:49:52;;;;;;;1.03;0.20;;;;;;;8.85;100.00;92992.94;4346329;32;20207;-62
2024/01/18 09:52:20;;;;;;;0.00;0.00;;;;;;;9.02;100.00;92982.03;4345157;32;20197;-63
2024/01/18 09:54:47;;;;;;;0.00;0.00;;;;;;;8.86;100.00;92984.69;4330753;32;20298;-63
2024/01/18 09:57:13;;;;;;;0.10;0.10;;;;;;;8.98;100.00;92988.34;4342336;32;20221;-63
2024/01/18 09:59:42;;;;;;;0.17;0.17;;;;;;;8.73;100.00;92985.84;4335664;32;20233;-62
2024/01/18 10:02:08;;;;;;;0.40;0.40;;;;;;;8.71;100.00;92982.78;4332852;32;20228;-63
2024/01/18 10:04:34;;;;;;;0.27;0.27;;;;;;;8.94;100.00;92982.97;4338036;32;20189;-62
2024/01/18 10:06:59;;;;;;;0.20;0.20;;;;;;;8.92;100.00;92972.75;4327684;32;20243;-63
2024/01/18 10:09:25;;;;;;;0.40;0.40;;;;;;;8.93;100.00;92971.66;4331198;32;20217;-63
2024/01/18 10:11:50;;;;;;;0.83;0.53;;;;;;;9.25;100.00;92967.13;4327416;32;20201;-63
2024/01/18 10:14:15;;;;;;;0.10;0.10;;;;;;;9.21;100.00;92963.63;4324694;32;20201;-63
2024/01/18 10:16:41;;;;;;;0.20;0.20;;;;;;;9.42;100.00;92962.56;4316217;33;20220;-63
2024/01/18 10:19:14;;;;;;;1.80;1.67;;;;;;;9.46;100.00;92976.66;4329495;33;20197;-62
2024/01/18 10:21:41;;;;;;;3.67;3.47;;;;;;;9.43;100.00;92967.50;4329074;32;20202;-61
2024/01/18 10:24:11;;;;;;;1.70;1.03;;;;;;;9.46;100.00;92963.41;4315962;32;20301;-62
2024/01/18 10:26:36;;;;;;;0.90;0.67;;;;;;;9.65;100.00;92961.59;4328022;32;20204;-62
2024/01/18 10:29:02;;;;;;;0.23;0.23;;;;;;;9.65;100.00;92952.88;4315791;33;20193;-63
2024/01/18 10:31:27;;;;;;;0.00;0.00;;;;;;;9.74;100.00;92953.47;4329395;32;20264;-63
2024/01/18 10:33:52;;;;;;;1.17;0.50;;;;;;;9.69;100.00;92958.25;4316983;33;20190;-62
2024/01/18 10:36:21;;;;;;;0.30;0.30;;;;;;;9.87;100.00;92948.81;4316970;32;20249;-63
2024/01/18 10:38:47;;;;;;;0.10;0.10;;;;;;;9.78;100.00;92937.63;4328439;32;20190;-62
2024/01/18 10:41:18;;;;;;;3.10;0.30;;;;;;;9.84;100.00;92936.25;4330107;32;20197;-62
2024/01/18 10:43:43;;;;;;;0.30;0.30;;;;;;;9.93;100.00;92936.84;4329252;32;20194;-63
2024/01/18 10:46:10;;;;;;;0.30;0.30;;;;;;;9.94;100.00;92931.19;4329467;32;20253;-62
2024/01/18 10:48:36;;;;;;;0.30;0.30;;;;;;;10.08;100.00;92924.62;4316114;32;20191;-62
2024/01/18 10:51:04;;;;;;;0.43;0.43;;;;;;;10.14;100.00;92925.91;4329859;32;20201;-62
2024/01/18 10:53:34;;;;;;;0.00;0.00;;;;;;;10.20;100.00;92921.84;4333006;32;20300;-62
2024/01/18 10:56:01;;;;;;;0.73;0.20;;;;;;;10.33;100.00;92924.03;4337204;32;20197;-62
2024/01/18 10:58:26;;;;;;;0.10;0.10;;;;;;;10.17;100.00;92923.31;4334890;32;20216;-62
2024/01/18 11:00:52;;;;;;;0.20;0.20;;;;;;;10.01;100.00;92927.91;4332480;32;20194;-62
2024/01/18 11:03:18;;;;;;;0.13;0.13;;;;;;;9.99;100.00;92933.53;4338688;32;20186;-62
2024/01/18 11:05:48;;;;;;;0.10;0.10;;;;;;;10.21;100.00;92937.41;4321005;32;20198;-62
2024/01/18 11:08:14;;;;;;;0.23;0.23;;;;;;;10.42;100.00;92933.63;4318431;33;20205;-62
2024/01/18 11:10:40;;;;;;;0.40;0.40;;;;;;;10.49;100.00;92933.78;4324102;32;20190;-62
2024/01/18 11:13:09;;;;;;;0.10;0.10;;;;;;;10.47;100.00;92941.31;4337116;32;20248;-62
2024/01/18 11:15:41;;;;;;;0.00;0.00;;;;;;;10.61;100.00;92936.25;4332860;32;20193;-61
2024/01/18 11:18:11;;;;;;;0.53;0.30;;;;;;;10.58;100.00;92947.59;4319086;32;20243;-62
2024/01/18 11:20:58;;;;;;;0.80;0.03;;;;;;;10.52;100.00;92948.97;4326258;32;20205;-61
2024/01/18 11:23:32;;;;;;;0.10;0.10;;;;;;;11.00;100.00;92940.38;4340211;32;20219;-63
2024/01/18 11:25:58;;;;;;;0.50;0.30;;;;;;;14.57;94.66;92932.12;4339052;32;20249;-63
2024/01/18 11:28:25;;;;;;;0.93;0.67;;;;;;;16.71;79.23;92928.16;4343965;32;20250;-63
2024/01/18 11:30:51;;;;;;;1.63;1.53;;;;;;;17.35;73.89;92925.06;4317486;32;20198;-62
2024/01/18 11:33:16;;;;;;;0.87;0.87;;;;;;;16.06;75.52;92932.19;4331769;32;20201;-62
2024/01/18 11:35:42;;;;;;;0.20;0.20;;;;;;;14.77;81.18;92925.31;4332968;32;20224;-63
2024/01/18 11:38:19;;;;;;;0.20;0.20;;;;;;;13.78;86.32;92928.31;4329976;32;20193;-62